createdAt,value
2022-12-28T00:01:19.190Z,41.33
2022-12-28T00:04:10.295Z,37.53
2022-12-28T00:07:00.592Z,35.40
2022-12-28T00:09:50.766Z,31.75
2022-12-28T00:12:41.281Z,30.50
2022-12-28T00:15:31.515Z,38.03
2022-12-28T00:18:21.881Z,37.72
2022-12-28T00:21:11.681Z,30.83
2022-12-28T00:24:02.291Z,34.65
2022-12-28T00:26:52.854Z,32.17
2022-12-28T00:29:43.388Z,27.65
2022-12-28T00:32:33.608Z,27.55
2022-12-28T00:35:23.982Z,33.22
2022-12-28T00:38:13.941Z,32.72
2022-12-28T00:41:05.674Z,35.95
2022-12-28T00:43:56.225Z,34.78
2022-12-28T00:46:48.869Z,36.70
2022-12-28T00:49:39.358Z,33.92
2022-12-28T00:52:29.833Z,36.40
2022-12-28T00:55:19.623Z,35.70
2022-12-28T00:58:09.682Z,31.67
2022-12-28T01:01:00.197Z,33.00
2022-12-28T01:03:50.576Z,42.05
2022-12-28T01:06:41.418Z,46.92
2022-12-28T01:09:31.880Z,39.75
2022-12-28T01:12:21.930Z,45.55
2022-12-28T01:15:13.196Z,42.33
2022-12-28T01:18:04.869Z,39.92
2022-12-28T01:20:55.119Z,38.17
2022-12-28T01:23:46.935Z,34.60
2022-12-28T01:26:36.945Z,40.42
2022-12-28T01:29:27.393Z,36.92
2022-12-28T01:32:18.904Z,38.45
2022-12-28T01:35:08.981Z,35.55
2022-12-28T01:37:59.220Z,38.00
2022-12-28T01:40:49.074Z,34.45
2022-12-28T01:43:43.463Z,30.88
2022-12-28T01:46:52.173Z,34.10
2022-12-28T01:49:42.047Z,28.83
2022-12-28T01:52:55.486Z,25.63
2022-12-28T01:55:47.766Z,29.70
2022-12-28T01:58:39.932Z,31.00
2022-12-28T02:01:31.536Z,30.35
2022-12-28T02:04:22.007Z,33.08
2022-12-28T02:07:16.533Z,30.52
2022-12-28T02:10:44.378Z,26.73
2022-12-28T02:13:21.207Z,14.70
2022-12-28T02:16:12.417Z,16.73
2022-12-28T02:19:07.572Z,18.02
2022-12-28T02:22:41.251Z,15.18
2022-12-28T02:26:08.973Z,17.10
2022-12-28T02:29:11.194Z,15.25
2022-12-28T02:32:35.332Z,16.63
2022-12-28T02:35:50.643Z,12.15
2022-12-28T02:38:48.195Z,17.83
2022-12-28T02:41:41.356Z,18.17
2022-12-28T02:44:50.402Z,15.60
2022-12-28T02:48:02.846Z,16.48
2022-12-28T02:51:08.411Z,12.25
2022-12-28T02:54:46.738Z,9.15
2022-12-28T02:58:14.869Z,10.43
2022-12-28T03:01:26.640Z,9.35
2022-12-28T03:04:49.871Z,14.20
2022-12-28T03:08:08.759Z,16.03
2022-12-28T03:11:23.004Z,18.08
2022-12-28T03:14:22.131Z,16.55
2022-12-28T03:17:32.569Z,17.08
2022-12-28T03:20:46.485Z,15.75
2022-12-28T03:23:59.589Z,17.02
2022-12-28T03:27:10.850Z,17.48
2022-12-28T03:30:37.184Z,14.00
2022-12-28T03:33:29.195Z,18.60
2022-12-28T03:36:36.450Z,17.77
2022-12-28T03:39:49.750Z,18.92
2022-12-28T03:43:03.944Z,17.35
2022-12-28T03:46:00.288Z,16.35
2022-12-28T03:48:53.286Z,18.90
2022-12-28T03:51:46.821Z,16.50
2022-12-28T03:54:40.319Z,21.02
2022-12-28T03:57:31.905Z,18.95
2022-12-28T04:00:22.201Z,14.00
2022-12-28T04:03:15.189Z,16.65
2022-12-28T04:06:06.447Z,14.60
2022-12-28T04:08:56.896Z,17.77
2022-12-28T04:11:49.736Z,11.43
2022-12-28T04:14:47.582Z,11.25
2022-12-28T04:17:37.765Z,4.32
2022-12-28T04:20:27.911Z,4.93
2022-12-28T04:23:18.941Z,6.75
2022-12-28T04:26:12.545Z,7.90
2022-12-28T04:29:05.527Z,3.85
2022-12-28T04:31:55.387Z,7.72
2022-12-28T04:34:48.704Z,6.18
2022-12-28T04:37:40.859Z,7.35
2022-12-28T04:40:31.108Z,8.40
2022-12-28T04:43:21.602Z,7.07
2022-12-28T04:46:16.640Z,12.10
2022-12-28T04:49:06.818Z,13.98
2022-12-28T04:51:57.041Z,14.38
2022-12-28T04:54:47.420Z,12.55
2022-12-28T04:57:38.080Z,17.05
2022-12-28T05:00:27.927Z,15.07
2022-12-28T05:03:18.421Z,19.75
2022-12-28T05:06:12.252Z,14.65
2022-12-28T05:09:02.207Z,11.35
2022-12-28T05:11:52.988Z,18.15
2022-12-28T05:14:44.687Z,13.50
2022-12-28T05:17:34.836Z,16.67
2022-12-28T05:20:24.860Z,13.35
2022-12-28T05:23:15.046Z,13.60
2022-12-28T05:26:06.631Z,14.70
2022-12-28T05:28:58.616Z,11.52
2022-12-28T05:31:48.755Z,11.75
2022-12-28T05:34:38.772Z,9.13
2022-12-28T05:37:28.711Z,9.50
2022-12-28T05:40:18.557Z,10.38
2022-12-28T05:43:09.264Z,9.85
2022-12-28T05:46:04.608Z,9.57
2022-12-28T05:48:55.416Z,11.27
2022-12-28T05:51:45.798Z,10.07
2022-12-28T05:54:35.904Z,16.30
2022-12-28T05:57:25.793Z,15.57
2022-12-28T06:00:16.276Z,17.08
2022-12-28T06:03:06.536Z,12.48
2022-12-28T06:05:56.562Z,14.35
2022-12-28T06:08:48.407Z,11.80
2022-12-28T06:11:39.115Z,14.32
2022-12-28T06:14:29.491Z,7.93
2022-12-28T06:17:19.368Z,9.50
2022-12-28T06:20:10.297Z,4.20
2022-12-28T06:23:00.545Z,6.53
2022-12-28T06:25:51.039Z,1.50
2022-12-28T06:28:42.367Z,1.90
2022-12-28T06:31:38.417Z,8.98
2022-12-28T06:34:28.597Z,5.82
2022-12-28T06:37:18.676Z,6.53
2022-12-28T06:40:09.203Z,3.42
2022-12-28T06:42:59.677Z,1.92
2022-12-28T06:45:57.051Z,6.97
2022-12-28T06:48:47.801Z,3.47
2022-12-28T06:51:41.407Z,3.92
2022-12-28T06:54:31.590Z,6.05
2022-12-28T06:57:21.655Z,4.47
2022-12-28T07:00:12.765Z,2.13
2022-12-28T07:03:03.077Z,1.80
2022-12-28T07:05:53.387Z,2.45
2022-12-28T07:08:43.926Z,7.85
2022-12-28T07:11:34.167Z,5.70
2022-12-28T07:14:24.896Z,1.92
2022-12-28T07:17:15.448Z,1.40
2022-12-28T07:20:06.101Z,2.55
2022-12-28T07:22:56.613Z,3.17
2022-12-28T07:25:46.660Z,1.52
2022-12-28T07:28:38.620Z,2.33
2022-12-28T07:31:38.381Z,6.00
2022-12-28T07:34:31.857Z,4.30
2022-12-28T07:37:22.305Z,3.88
2022-12-28T07:40:12.691Z,4.05
2022-12-28T07:43:02.479Z,2.95
2022-12-28T07:46:07.089Z,2.15
2022-12-28T07:48:58.033Z,3.75
2022-12-28T07:51:49.011Z,5.03
2022-12-28T07:54:39.280Z,1.35
2022-12-28T07:57:29.372Z,4.15
2022-12-28T08:00:19.620Z,5.68
2022-12-28T08:03:09.647Z,5.15
2022-12-28T08:06:08.192Z,6.82
2022-12-28T08:09:00.436Z,2.22
2022-12-28T08:11:50.749Z,5.75
2022-12-28T08:14:40.910Z,4.22
2022-12-28T08:17:30.784Z,2.80
2022-12-28T08:20:22.395Z,9.25
2022-12-28T08:23:12.311Z,4.13
2022-12-28T08:26:14.774Z,3.47
2022-12-28T08:29:08.952Z,4.85
2022-12-28T08:31:58.996Z,3.55
2022-12-28T08:34:48.992Z,4.43
2022-12-28T08:37:38.957Z,7.03
2022-12-28T08:40:30.020Z,7.85
2022-12-28T08:43:20.366Z,4.38
2022-12-28T08:46:19.613Z,8.18
2022-12-28T08:49:10.222Z,3.38
2022-12-28T08:52:00.224Z,4.25
2022-12-28T08:54:50.485Z,2.90
2022-12-28T08:57:40.526Z,6.63
2022-12-28T09:00:30.600Z,7.75
2022-12-28T09:03:21.197Z,3.97
2022-12-28T09:06:15.572Z,5.47
2022-12-28T09:09:07.623Z,4.07
2022-12-28T09:11:57.634Z,5.10
2022-12-28T09:14:47.511Z,4.32
2022-12-28T09:17:37.432Z,7.00
2022-12-28T09:20:27.329Z,4.43
2022-12-28T09:23:17.264Z,6.82
2022-12-28T09:26:09.717Z,4.10
2022-12-28T09:29:02.668Z,6.95
2022-12-28T09:31:52.532Z,4.80
2022-12-28T09:34:42.447Z,3.55
2022-12-28T09:37:32.973Z,4.35
2022-12-28T09:40:23.970Z,7.05
2022-12-28T09:43:14.372Z,6.07
2022-12-28T09:46:04.857Z,7.32
2022-12-28T09:48:58.927Z,7.97
2022-12-28T09:52:15.270Z,6.65
2022-12-28T09:55:14.823Z,7.30
2022-12-28T09:58:11.589Z,9.40
2022-12-28T10:01:03.603Z,5.63
2022-12-28T10:03:55.779Z,7.93
2022-12-28T10:06:45.751Z,7.35
2022-12-28T10:09:35.917Z,6.10
2022-12-28T10:12:26.151Z,7.82
2022-12-28T10:15:17.258Z,5.75
2022-12-28T10:18:07.762Z,4.72
2022-12-28T10:20:59.876Z,2.55
2022-12-28T10:24:29.813Z,4.30
2022-12-28T10:27:07.079Z,4.05
2022-12-28T10:30:01.424Z,3.97
2022-12-28T10:32:59.719Z,4.55
2022-12-28T10:35:55.652Z,9.57
2022-12-28T10:38:55.322Z,3.20
2022-12-28T10:41:46.245Z,6.03
2022-12-28T10:44:40.129Z,3.63
2022-12-28T10:47:36.022Z,4.93
2022-12-28T10:50:47.890Z,4.40
2022-12-28T10:53:55.029Z,2.97
2022-12-28T10:56:49.289Z,2.65
2022-12-28T10:59:40.670Z,5.38
2022-12-28T11:02:32.812Z,3.90
2022-12-28T11:05:25.185Z,5.80
2022-12-28T11:08:15.406Z,4.13
2022-12-28T11:11:06.717Z,5.13
2022-12-28T11:14:03.388Z,10.18
2022-12-28T11:16:53.378Z,5.28
2022-12-28T11:19:43.931Z,7.97
2022-12-28T11:22:34.181Z,3.60
2022-12-28T11:25:34.419Z,4.80
2022-12-28T11:28:24.861Z,13.05
2022-12-28T11:31:23.937Z,7.25
2022-12-28T11:34:20.837Z,5.95
2022-12-28T11:37:13.907Z,1.55
2022-12-28T11:40:04.172Z,0.77
2022-12-28T11:42:56.063Z,1.55
2022-12-28T11:45:54.665Z,2.22
2022-12-28T11:48:49.226Z,1.35
2022-12-28T11:51:39.212Z,1.48
2022-12-28T11:54:38.039Z,2.50
2022-12-28T11:57:39.956Z,4.40
2022-12-28T12:00:48.061Z,1.83
2022-12-28T12:03:56.526Z,1.90
2022-12-28T12:06:48.624Z,1.88
2022-12-28T12:09:38.721Z,3.95
2022-12-28T12:12:28.694Z,2.30
2022-12-28T12:15:41.373Z,4.53
2022-12-28T12:18:43.283Z,3.85
2022-12-28T12:21:41.564Z,1.42
2022-12-28T12:24:58.752Z,1.60
2022-12-28T12:27:53.717Z,2.55
2022-12-28T12:30:45.535Z,3.03
2022-12-28T12:33:40.904Z,3.58
2022-12-28T12:36:34.943Z,2.83
2022-12-28T12:39:57.702Z,4.47
2022-12-28T12:43:10.846Z,2.85
2022-12-28T12:46:06.938Z,5.70
2022-12-28T12:49:24.619Z,3.22
2022-12-28T12:52:42.717Z,1.65
2022-12-28T12:55:38.748Z,1.27
2022-12-28T12:58:52.500Z,2.42
2022-12-28T13:01:53.822Z,2.30
2022-12-28T13:04:47.195Z,1.65
2022-12-28T13:07:40.042Z,2.45
2022-12-28T13:10:44.566Z,2.58
2022-12-28T13:16:31.114Z,1.50
2022-12-28T13:19:24.999Z,3.10
2022-12-28T13:22:32.547Z,2.38
2022-12-28T13:25:30.685Z,2.45
2022-12-28T13:28:27.216Z,1.55
2022-12-28T13:31:32.155Z,3.47
2022-12-28T13:34:28.524Z,2.97
2022-12-28T13:37:19.738Z,6.63
2022-12-28T13:40:16.560Z,1.05
2022-12-28T13:43:09.718Z,1.25
2022-12-28T13:46:07.995Z,3.25
2022-12-28T13:48:59.418Z,4.30
2022-12-28T13:51:53.588Z,5.45
2022-12-28T13:54:52.441Z,2.47
2022-12-28T13:57:49.061Z,3.42
2022-12-28T14:00:45.902Z,2.00
2022-12-28T14:03:46.189Z,3.38
2022-12-28T14:06:36.761Z,2.85
2022-12-28T14:09:27.773Z,3.10
2022-12-28T14:12:18.665Z,3.95
2022-12-28T14:15:11.743Z,10.70
2022-12-28T14:18:03.603Z,6.25
2022-12-28T14:20:55.768Z,4.90
2022-12-28T14:23:45.736Z,5.93
2022-12-28T14:26:38.178Z,2.22
2022-12-28T14:29:31.701Z,3.35
2022-12-28T14:32:22.004Z,4.67
2022-12-28T14:35:22.823Z,3.88
2022-12-28T14:38:19.166Z,2.22
2022-12-28T14:41:23.901Z,1.80
2022-12-28T14:44:17.655Z,3.53
2022-12-28T14:47:32.732Z,4.95
2022-12-28T14:50:29.093Z,4.57
2022-12-28T14:53:20.166Z,6.05
2022-12-28T14:56:17.812Z,2.80
2022-12-28T14:59:21.013Z,6.10
2022-12-28T15:02:33.433Z,6.03
2022-12-28T15:05:41.993Z,3.70
2022-12-28T15:08:32.178Z,3.88
2022-12-28T15:11:24.300Z,5.13
2022-12-28T15:14:14.592Z,4.13
2022-12-28T15:17:05.536Z,2.60
2022-12-28T15:19:56.932Z,5.50
2022-12-28T15:22:50.420Z,3.53
2022-12-28T15:25:40.297Z,4.28
2022-12-28T15:28:30.299Z,5.43
2022-12-28T15:31:21.538Z,5.28
2022-12-28T15:34:11.921Z,4.47
2022-12-28T15:37:02.302Z,2.42
2022-12-28T15:39:52.323Z,3.15
2022-12-28T15:42:46.169Z,2.40
2022-12-28T15:45:36.195Z,3.22
2022-12-28T15:48:30.281Z,3.03
2022-12-28T15:54:10.552Z,2.67
2022-12-28T15:57:00.599Z,2.38
2022-12-28T15:59:50.519Z,3.67
2022-12-28T16:02:40.660Z,4.85
2022-12-28T16:05:32.502Z,2.63
2022-12-28T16:08:22.446Z,3.53
2022-12-28T16:11:18.338Z,3.88
2022-12-28T16:14:14.541Z,6.45
2022-12-28T16:17:04.746Z,3.55
2022-12-28T16:19:55.269Z,5.30
2022-12-28T16:22:45.942Z,3.55
2022-12-28T16:25:35.770Z,4.75
2022-12-28T16:28:26.501Z,6.53
2022-12-28T16:31:34.792Z,3.70
2022-12-28T16:34:28.469Z,5.45
2022-12-28T16:37:18.499Z,5.53
2022-12-28T16:40:09.549Z,7.43
2022-12-28T16:42:59.681Z,7.30
2022-12-28T16:45:49.682Z,7.95
2022-12-28T16:48:40.644Z,5.57
2022-12-28T16:51:31.673Z,6.78
2022-12-28T16:54:23.850Z,6.20
2022-12-28T16:57:14.197Z,6.05
2022-12-28T17:00:04.673Z,5.10
2022-12-28T17:02:55.088Z,7.53
2022-12-28T17:05:48.684Z,6.28
2022-12-28T17:08:38.729Z,6.60
2022-12-28T17:11:29.025Z,7.93
2022-12-28T17:17:29.927Z,6.00
2022-12-28T17:20:19.892Z,7.28
2022-12-28T17:23:10.010Z,8.30
2022-12-28T17:26:00.399Z,5.60
2022-12-28T17:28:50.537Z,5.10
2022-12-28T17:31:40.545Z,10.73
2022-12-28T17:34:30.948Z,9.55
2022-12-28T17:37:20.780Z,7.40
2022-12-28T17:40:11.047Z,6.53
2022-12-28T17:43:00.922Z,5.63
2022-12-28T17:45:50.846Z,8.43
2022-12-28T17:48:41.106Z,5.90
2022-12-28T17:51:31.308Z,6.20
2022-12-28T17:54:21.453Z,6.70
2022-12-28T17:57:11.916Z,8.90
2022-12-28T18:00:02.285Z,7.05
2022-12-28T18:03:02.348Z,6.80
2022-12-28T18:05:53.901Z,10.90
2022-12-28T18:08:44.077Z,8.18
2022-12-28T18:11:34.131Z,5.80
2022-12-28T18:14:26.026Z,6.70
2022-12-28T18:17:19.258Z,6.38
2022-12-28T18:20:09.940Z,11.00
2022-12-28T18:23:00.342Z,7.20
2022-12-28T18:25:50.601Z,8.70
2022-12-28T18:28:41.126Z,6.38
2022-12-28T18:31:31.294Z,9.05
2022-12-28T18:34:21.436Z,10.30
2022-12-28T18:37:11.423Z,5.68
2022-12-28T18:40:01.910Z,6.32
2022-12-28T18:42:51.897Z,4.35
2022-12-28T18:45:41.940Z,5.30
2022-12-28T18:48:35.559Z,7.60
2022-12-28T18:51:25.979Z,5.72
2022-12-28T18:54:15.862Z,6.75
2022-12-28T18:57:06.017Z,5.55
2022-12-28T18:59:56.364Z,8.73
2022-12-28T19:02:51.028Z,6.32
2022-12-28T19:05:41.342Z,6.68
2022-12-28T19:08:33.552Z,6.10
2022-12-28T19:11:23.785Z,6.43
2022-12-28T19:14:15.420Z,8.18
2022-12-28T19:17:05.577Z,5.65
2022-12-28T19:19:56.083Z,6.75
2022-12-28T19:22:46.588Z,11.15
2022-12-28T19:25:36.511Z,10.95
2022-12-28T19:28:26.468Z,6.03
2022-12-28T19:31:16.693Z,6.45
2022-12-28T19:34:06.961Z,6.25
2022-12-28T19:36:57.374Z,8.48
2022-12-28T19:39:47.290Z,6.97
2022-12-28T19:42:37.384Z,4.85
2022-12-28T19:45:27.836Z,6.55
2022-12-28T19:48:18.181Z,8.35
2022-12-28T19:51:08.181Z,7.25
2022-12-28T19:53:59.085Z,5.30
2022-12-28T19:56:49.201Z,9.73
2022-12-28T19:59:39.097Z,6.68
2022-12-28T20:02:29.115Z,3.80
2022-12-28T20:05:19.522Z,10.18
2022-12-28T20:08:10.086Z,7.35
2022-12-28T20:11:00.365Z,7.75
2022-12-28T20:13:52.379Z,16.30
2022-12-28T20:16:43.606Z,8.93
2022-12-28T20:19:33.578Z,8.55
2022-12-28T20:22:23.874Z,7.05
2022-12-28T20:25:13.693Z,7.47
2022-12-28T20:28:03.976Z,10.48
2022-12-28T20:30:59.733Z,8.30
2022-12-28T20:33:50.431Z,7.53
2022-12-28T20:36:40.914Z,8.63
2022-12-28T20:39:31.194Z,10.93
2022-12-28T20:42:39.599Z,9.88
2022-12-28T20:45:33.872Z,9.43
2022-12-28T20:48:24.751Z,8.63
2022-12-28T20:51:15.114Z,8.40
2022-12-28T20:54:05.998Z,7.88
2022-12-28T20:56:56.628Z,6.22
2022-12-28T20:59:46.860Z,6.10
2022-12-28T21:02:36.757Z,10.73
2022-12-28T21:05:27.207Z,8.77
2022-12-28T21:08:17.781Z,9.82
2022-12-28T21:11:07.688Z,9.70
2022-12-28T21:13:58.164Z,8.95
2022-12-28T21:16:48.594Z,10.70
2022-12-28T21:19:38.850Z,9.93
2022-12-28T21:22:29.092Z,10.02
2022-12-28T21:25:19.073Z,15.35
2022-12-28T21:28:10.107Z,9.77
2022-12-28T21:31:03.001Z,7.90
2022-12-28T21:33:57.396Z,8.30
2022-12-28T21:39:38.073Z,8.45
2022-12-28T21:42:28.664Z,6.68
2022-12-28T21:45:19.180Z,5.97
2022-12-28T21:48:09.512Z,7.90
2022-12-28T21:51:30.639Z,9.90
2022-12-28T21:54:22.052Z,6.53
2022-12-28T21:57:12.909Z,10.68
2022-12-28T22:00:23.448Z,5.60
2022-12-28T22:03:32.357Z,8.90
2022-12-28T22:06:22.573Z,7.97
2022-12-28T22:09:31.702Z,6.68
2022-12-28T22:12:34.474Z,7.97
2022-12-28T22:15:44.921Z,6.78
2022-12-28T22:19:01.709Z,8.10
2022-12-28T22:21:45.219Z,7.40
2022-12-28T22:24:35.590Z,5.85
2022-12-28T22:27:25.960Z,5.82
2022-12-28T22:30:15.982Z,6.78
2022-12-28T22:33:06.792Z,6.22
2022-12-28T22:35:57.732Z,4.63
2022-12-28T22:38:48.653Z,6.00
2022-12-28T22:41:39.056Z,6.03
2022-12-28T22:44:29.439Z,4.15
2022-12-28T22:47:19.815Z,4.40
2022-12-28T22:50:12.691Z,4.07
2022-12-28T22:53:02.991Z,5.78
2022-12-28T22:56:01.013Z,5.03
2022-12-28T22:58:51.251Z,7.80
2022-12-28T23:01:41.638Z,6.93
2022-12-28T23:04:31.824Z,6.47
2022-12-28T23:07:22.098Z,5.20
2022-12-28T23:10:12.287Z,7.00
2022-12-28T23:13:03.453Z,4.95
2022-12-28T23:16:00.960Z,3.60
2022-12-28T23:19:09.898Z,5.43
2022-12-28T23:22:18.609Z,5.07
2022-12-28T23:25:32.800Z,5.80
2022-12-28T23:28:22.888Z,3.85
2022-12-28T23:31:13.149Z,5.35
2022-12-28T23:34:03.296Z,11.07
2022-12-28T23:36:53.523Z,4.70
2022-12-28T23:39:43.413Z,3.55
2022-12-28T23:42:36.113Z,4.57
2022-12-28T23:45:26.312Z,4.22
2022-12-28T23:48:16.228Z,4.70
2022-12-28T23:51:08.427Z,4.60
2022-12-28T23:53:58.665Z,3.38
2022-12-28T23:56:49.121Z,4.50
2022-12-28T23:59:39.209Z,3.83
